Lakewood, New Mexico
Current Conditions -  °F | °C
As of 7:02 AM on Saturday 22 Nov 2014 (Local Time) from KCNM Reporting Station
Scattered Clouds Scattered Clouds  
Wind Chill: 43°   Ceiling: Unl
Heat Index: 48°   Visibility: 10mi
Dew Point: 40°   Wind: 10mph
Humidity: 74%   Direction: 290°WNW
Pressure: 29.98"   Gusts: NA
Location:  32.63°N, 104.38°W
Report Text: KCNM 221402Z AUTO 29009KT 10SM SCT018 09/04 A2998 RMK AO2 T00890044
Loading
Personal Weather Stations






























Interactive Weather Map New forecast layout! Learn more

10-Day Weather Forecast

Advertisements
Track Severe Weather on mobile